createdAt,value
2023-05-01T00:02:21.780Z,100408.03
2023-05-01T00:07:25.499Z,100397.06
2023-05-01T00:12:29.068Z,100395.94
2023-05-01T00:17:32.004Z,100403.50
2023-05-01T00:22:34.925Z,100390.19
2023-05-01T00:27:37.845Z,100391.91
2023-05-01T00:32:41.670Z,100388.88
2023-05-01T00:37:45.119Z,100392.09
2023-05-01T00:42:48.084Z,100389.88
2023-05-01T00:47:51.204Z,100389.25
2023-05-01T00:52:54.244Z,100397.44
2023-05-01T00:57:57.526Z,100402.47
2023-05-01T01:03:01.039Z,100401.91
2023-05-01T01:08:31.325Z,100399.41
2023-05-01T01:13:58.303Z,100402.06
2023-05-01T01:19:37.546Z,100405.84
2023-05-01T01:25:30.130Z,100400.31
2023-05-01T01:31:17.644Z,100394.88
2023-05-01T01:36:43.441Z,100390.56
2023-05-01T01:41:52.904Z,100399.50
2023-05-01T01:46:56.688Z,100390.56
2023-05-01T01:52:02.617Z,100388.09
2023-05-01T01:57:08.960Z,100390.72
2023-05-01T02:02:14.094Z,100387.94
2023-05-01T02:07:19.021Z,100394.88
2023-05-01T02:12:26.895Z,100393.91
2023-05-01T02:17:30.902Z,100398.34
2023-05-01T02:22:34.423Z,100411.47
2023-05-01T02:27:47.563Z,100398.22
2023-05-01T02:32:50.906Z,100400.16
2023-05-01T02:37:54.206Z,100398.50
2023-05-01T02:42:58.794Z,100406.75
2023-05-01T02:48:05.975Z,100402.03
2023-05-01T02:53:09.727Z,100408.41
2023-05-01T02:58:20.409Z,100411.63
2023-05-01T03:03:23.439Z,100412.63
2023-05-01T03:08:26.632Z,100406.53
2023-05-01T03:13:29.906Z,100408.50
2023-05-01T03:18:33.338Z,100417.91
2023-05-01T03:23:38.425Z,100419.34
2023-05-01T03:28:41.408Z,100431.84
2023-05-01T03:33:44.272Z,100435.88
2023-05-01T03:38:47.514Z,100427.22
2023-05-01T03:43:50.817Z,100416.53
2023-05-01T03:48:54.474Z,100431.53
2023-05-01T03:53:58.897Z,100424.47
2023-05-01T03:59:02.445Z,100420.31
2023-05-01T04:04:05.855Z,100432.41
2023-05-01T04:09:08.783Z,100440.75
2023-05-01T04:14:11.738Z,100438.22
2023-05-01T04:19:16.061Z,100431.97
2023-05-01T04:24:19.046Z,100432.97
2023-05-01T04:29:22.028Z,100440.44
2023-05-01T04:34:25.885Z,100441.28
2023-05-01T04:39:28.877Z,100445.84
2023-05-01T04:44:34.275Z,100451.66
2023-05-01T04:49:37.179Z,100447.84
2023-05-01T04:54:40.144Z,100451.09
2023-05-01T04:59:43.341Z,100452.38
2023-05-01T05:04:46.272Z,100452.03
2023-05-01T05:09:49.262Z,100451.63
2023-05-01T05:14:52.190Z,100439.59
2023-05-01T05:19:55.605Z,100450.41
2023-05-01T05:25:04.182Z,100451.59
2023-05-01T05:30:08.529Z,100453.03
2023-05-01T05:35:11.638Z,100455.84
2023-05-01T05:40:14.843Z,100466.59
2023-05-01T05:45:17.868Z,100461.94
2023-05-01T05:50:20.908Z,100471.16
2023-05-01T05:55:23.863Z,100473.50
2023-05-01T06:00:27.322Z,100470.91
2023-05-01T06:05:30.507Z,100466.22
2023-05-01T06:10:33.462Z,100466.06
2023-05-01T06:15:38.372Z,100467.41
2023-05-01T06:20:42.819Z,100471.25
2023-05-01T06:25:47.087Z,100475.19
2023-05-01T06:30:50.162Z,100464.72
2023-05-01T06:35:54.634Z,100469.97
2023-05-01T06:40:58.019Z,100464.38
2023-05-01T06:46:01.449Z,100473.28
2023-05-01T06:51:04.592Z,100473.16
2023-05-01T06:56:08.826Z,100471.59
2023-05-01T07:01:11.925Z,100473.16
2023-05-01T07:06:15.230Z,100467.19
2023-05-01T07:11:18.267Z,100471.25
2023-05-01T07:16:21.783Z,100472.00
2023-05-01T07:21:25.054Z,100481.91
2023-05-01T07:26:28.165Z,100473.72
2023-05-01T07:31:31.356Z,100470.91
2023-05-01T07:36:34.449Z,100471.25
2023-05-01T07:41:37.413Z,100469.50
2023-05-01T07:46:40.758Z,100458.16
2023-05-01T07:51:44.844Z,100461.38
2023-05-01T07:56:49.677Z,100462.81
2023-05-01T08:01:52.818Z,100467.00
2023-05-01T08:06:55.880Z,100464.47
2023-05-01T08:11:58.975Z,100463.56
2023-05-01T08:17:01.902Z,100463.25
2023-05-01T08:22:05.398Z,100474.06
2023-05-01T08:27:09.482Z,100461.50
2023-05-01T08:32:12.600Z,100461.00
2023-05-01T08:37:15.770Z,100457.63
2023-05-01T08:42:19.451Z,100457.16
2023-05-01T08:47:22.944Z,100448.88
2023-05-01T08:52:27.342Z,100447.94
2023-05-01T08:57:31.955Z,100445.03
2023-05-01T09:02:36.011Z,100446.72
2023-05-01T09:07:40.954Z,100448.34
2023-05-01T09:12:47.826Z,100440.50
2023-05-01T09:17:51.311Z,100437.19
2023-05-01T09:22:56.937Z,100435.94
2023-05-01T09:28:00.082Z,100421.22
2023-05-01T09:33:14.000Z,100423.19
2023-05-01T09:38:27.891Z,100415.94
2023-05-01T09:43:31.820Z,100413.81
2023-05-01T09:48:36.269Z,100416.22
2023-05-01T09:53:40.907Z,100400.66
2023-05-01T09:58:44.563Z,100408.63
2023-05-01T10:03:55.041Z,100404.47
2023-05-01T10:08:58.207Z,100395.72
2023-05-01T10:14:11.348Z,100392.19
2023-05-01T10:19:17.502Z,100394.41
2023-05-01T10:24:21.583Z,100382.31
2023-05-01T10:29:27.988Z,100375.63
2023-05-01T10:34:34.128Z,100366.03
2023-05-01T10:39:37.453Z,100372.16
2023-05-01T10:44:42.475Z,100365.41
2023-05-01T10:50:11.398Z,100345.97
2023-05-01T10:55:37.396Z,100354.06
2023-05-01T11:00:41.413Z,100349.50
2023-05-01T11:06:16.850Z,100343.41
2023-05-01T11:11:22.971Z,100340.41
2023-05-01T11:16:38.517Z,100339.72
2023-05-01T11:21:42.198Z,100334.38
2023-05-01T11:26:45.252Z,100330.63
2023-05-01T11:31:49.010Z,100319.56
2023-05-01T11:36:53.597Z,100323.44
2023-05-01T11:42:09.962Z,100306.53
2023-05-01T11:47:13.762Z,100305.53
2023-05-01T11:52:17.516Z,100303.00
2023-05-01T11:57:20.472Z,100308.16
2023-05-01T12:02:23.758Z,100302.88
2023-05-01T12:07:26.773Z,100290.78
2023-05-01T12:12:30.312Z,100295.13
2023-05-01T12:17:33.470Z,100280.63
2023-05-01T12:22:50.454Z,100279.50
2023-05-01T12:27:53.887Z,100268.00
2023-05-01T12:32:58.614Z,100261.03
2023-05-01T12:38:18.180Z,100256.91
2023-05-01T12:43:29.807Z,100250.66
2023-05-01T12:48:35.850Z,100234.44
2023-05-01T12:53:44.714Z,100240.31
2023-05-01T12:58:48.063Z,100232.78
2023-05-01T13:03:51.332Z,100219.81
2023-05-01T13:08:54.219Z,100218.38
2023-05-01T13:14:11.713Z,100219.84
2023-05-01T13:19:24.726Z,100216.44
2023-05-01T13:24:41.858Z,100210.72
2023-05-01T13:29:58.655Z,100204.94
2023-05-01T13:35:02.986Z,100194.22
2023-05-01T13:40:06.988Z,100195.16
2023-05-01T13:45:11.428Z,100183.59
2023-05-01T13:50:16.194Z,100187.13
2023-05-01T13:55:21.851Z,100180.16
2023-05-01T14:00:26.093Z,100167.47
2023-05-01T14:05:29.117Z,100158.88
2023-05-01T14:10:32.435Z,100159.91
2023-05-01T14:15:36.041Z,100151.13
2023-05-01T14:20:41.032Z,100158.38
2023-05-01T14:25:46.644Z,100144.81
2023-05-01T14:30:51.412Z,100145.69
2023-05-01T14:35:55.419Z,100132.78
2023-05-01T14:40:58.501Z,100139.56
2023-05-01T14:46:01.483Z,100128.50
2023-05-01T14:51:10.508Z,100123.00
2023-05-01T14:56:13.582Z,100118.16
2023-05-01T15:01:18.299Z,100130.22
2023-05-01T15:06:21.828Z,100126.66
2023-05-01T15:11:24.824Z,100120.94
2023-05-01T15:16:28.032Z,100124.09
2023-05-01T15:21:32.073Z,100127.59
2023-05-01T15:26:35.012Z,100120.78
2023-05-01T15:31:38.151Z,100119.84
2023-05-01T15:36:41.767Z,100115.09
2023-05-01T15:41:45.097Z,100109.13
2023-05-01T15:46:56.155Z,100104.78
2023-05-01T15:51:59.499Z,100118.06
2023-05-01T15:57:03.279Z,100108.69
2023-05-01T16:02:08.878Z,100109.97
2023-05-01T16:07:13.364Z,100118.44
2023-05-01T16:12:16.428Z,100124.56
2023-05-01T16:17:19.777Z,100119.19
2023-05-01T16:22:22.888Z,100108.34
2023-05-01T16:27:25.881Z,100113.78
2023-05-01T16:32:29.500Z,100115.00
2023-05-01T16:37:34.189Z,100108.88
2023-05-01T16:42:38.495Z,100118.81
2023-05-01T16:47:41.534Z,100115.81
2023-05-01T16:52:44.712Z,100122.09
2023-05-01T16:57:48.144Z,100120.47
2023-05-01T17:02:52.421Z,100115.34
2023-05-01T17:07:55.404Z,100117.69
2023-05-01T17:13:02.330Z,100112.75
2023-05-01T17:18:05.907Z,100118.28
2023-05-01T17:23:09.881Z,100116.63
2023-05-01T17:28:12.907Z,100121.47
2023-05-01T17:33:16.223Z,100116.88
2023-05-01T17:38:19.393Z,100120.09
2023-05-01T17:43:22.543Z,100118.97
2023-05-01T17:48:25.718Z,100127.13
2023-05-01T17:53:28.655Z,100121.25
2023-05-01T17:58:31.973Z,100126.09
2023-05-01T18:03:35.266Z,100127.22
2023-05-01T18:08:38.390Z,100125.22
2023-05-01T18:13:43.848Z,100127.06
2023-05-01T18:18:49.621Z,100126.88
2023-05-01T18:23:52.630Z,100144.00
2023-05-01T18:28:55.871Z,100141.03
2023-05-01T18:33:59.528Z,100146.09
2023-05-01T18:39:02.424Z,100153.25
2023-05-01T18:44:06.191Z,100159.75
2023-05-01T18:49:11.018Z,100150.84
2023-05-01T18:54:14.122Z,100158.81
2023-05-01T18:59:19.513Z,100154.56
2023-05-01T19:04:22.762Z,100168.66
2023-05-01T19:09:25.909Z,100173.84
2023-05-01T19:14:28.887Z,100171.72
2023-05-01T19:19:31.872Z,100181.63
2023-05-01T19:24:35.039Z,100187.31
2023-05-01T19:29:39.820Z,100187.09
2023-05-01T19:34:42.668Z,100184.00
2023-05-01T19:39:45.999Z,100181.38
2023-05-01T19:44:49.429Z,100184.88
2023-05-01T19:49:52.388Z,100183.59
2023-05-01T19:54:55.309Z,100188.41
2023-05-01T20:00:01.200Z,100190.59
2023-05-01T20:05:05.829Z,100191.78
2023-05-01T20:10:09.781Z,100185.78
2023-05-01T20:15:12.854Z,100182.53
2023-05-01T20:20:20.034Z,100191.97
2023-05-01T20:25:24.300Z,100187.72
2023-05-01T20:30:27.199Z,100192.06
2023-05-01T20:35:33.788Z,100186.81
2023-05-01T20:40:40.893Z,100197.84
2023-05-01T20:45:43.899Z,100200.38
2023-05-01T20:50:48.349Z,100201.06
2023-05-01T20:55:51.374Z,100201.31
2023-05-01T21:00:55.894Z,100211.84
2023-05-01T21:06:02.283Z,100205.44
2023-05-01T21:11:06.001Z,100215.63
2023-05-01T21:16:16.990Z,100211.19
2023-05-01T21:21:19.712Z,100207.56
2023-05-01T21:26:22.710Z,100218.88
2023-05-01T21:31:34.487Z,100224.56
2023-05-01T21:36:45.248Z,100224.72
2023-05-01T21:41:49.533Z,100220.94
2023-05-01T21:46:55.317Z,100232.38
2023-05-01T21:52:00.023Z,100225.28
2023-05-01T21:57:05.760Z,100229.28
2023-05-01T22:02:11.428Z,100239.56
2023-05-01T22:07:14.450Z,100231.28
2023-05-01T22:12:17.383Z,100237.91
2023-05-01T22:17:24.380Z,100233.44
2023-05-01T22:22:27.534Z,100229.81
2023-05-01T22:27:31.252Z,100225.81
2023-05-01T22:32:34.403Z,100227.94
2023-05-01T22:37:37.885Z,100234.91
2023-05-01T22:42:40.977Z,100229.59
2023-05-01T22:47:44.037Z,100231.25
2023-05-01T22:52:47.010Z,100218.75
2023-05-01T22:57:49.972Z,100223.91
2023-05-01T23:02:52.958Z,100219.75
2023-05-01T23:07:56.011Z,100215.91
2023-05-01T23:13:00.209Z,100217.75
2023-05-01T23:18:03.817Z,100213.56
2023-05-01T23:23:14.357Z,100218.53
2023-05-01T23:28:23.437Z,100216.38
2023-05-01T23:33:34.462Z,100230.13
2023-05-01T23:38:37.255Z,100229.25
2023-05-01T23:43:40.384Z,100223.25
2023-05-01T23:48:43.515Z,100223.91
2023-05-01T23:53:46.644Z,100228.03
2023-05-01T23:58:49.688Z,100226.50
